createdAt,value
2018-04-15T00:00:34.398Z,10.80
2018-04-15T00:01:34.397Z,10.88
2018-04-15T00:02:34.414Z,10.77
2018-04-15T00:03:34.390Z,10.84
2018-04-15T00:04:34.390Z,10.84
2018-04-15T00:05:34.380Z,10.84
2018-04-15T00:06:34.369Z,10.92
2018-04-15T00:07:34.364Z,11.01
2018-04-15T00:08:34.363Z,10.94
2018-04-15T00:09:34.355Z,10.96
2018-04-15T00:10:34.372Z,10.99
2018-04-15T00:11:34.341Z,10.88
2018-04-15T00:12:34.342Z,10.83
2018-04-15T00:13:34.352Z,10.84
2018-04-15T00:14:34.336Z,10.68
2018-04-15T00:15:34.328Z,10.62
2018-04-15T00:16:34.339Z,10.63
2018-04-15T00:17:34.320Z,10.52
2018-04-15T00:18:34.320Z,10.46
2018-04-15T00:19:34.312Z,10.34
2018-04-15T00:20:34.301Z,10.30
2018-04-15T00:21:34.296Z,10.34
2018-04-15T00:22:34.301Z,10.36
2018-04-15T00:23:34.284Z,10.22
2018-04-15T00:24:34.285Z,10.24
2018-04-15T00:25:34.286Z,10.30
2018-04-15T00:26:34.274Z,10.25
2018-04-15T00:27:34.261Z,10.37
2018-04-15T00:28:34.280Z,10.36
2018-04-15T00:29:34.264Z,10.39
2018-04-15T00:30:34.259Z,10.52
2018-04-15T00:31:34.250Z,10.47
2018-04-15T00:32:34.253Z,10.52
2018-04-15T00:33:34.236Z,10.44
2018-04-15T00:34:34.238Z,10.33
2018-04-15T00:35:34.229Z,10.25
2018-04-15T00:36:34.235Z,10.28
2018-04-15T00:37:34.218Z,10.33
2018-04-15T00:38:34.216Z,10.22
2018-04-15T00:39:34.210Z,10.30
2018-04-15T00:40:34.212Z,10.33
2018-04-15T00:41:34.228Z,10.32
2018-04-15T00:42:34.200Z,10.21
2018-04-15T00:43:34.193Z,10.25
2018-04-15T00:44:34.191Z,10.22
2018-04-15T00:45:34.180Z,10.21
2018-04-15T00:46:34.185Z,10.22
2018-04-15T00:47:34.171Z,10.09
2018-04-15T00:48:34.168Z,10.01
2018-04-15T00:49:34.158Z,9.97
2018-04-15T00:50:34.153Z,9.89
2018-04-15T00:51:34.148Z,9.79
2018-04-15T00:52:34.136Z,9.83
2018-04-15T00:53:34.146Z,9.64
2018-04-15T00:54:34.141Z,9.57
2018-04-15T00:55:34.121Z,9.46
2018-04-15T00:56:34.116Z,9.39
2018-04-15T00:57:34.106Z,9.28
2018-04-15T00:58:34.113Z,9.25
2018-04-15T00:59:34.108Z,9.05
2018-04-15T01:00:34.094Z,8.99
2018-04-15T01:01:34.108Z,8.99
2018-04-15T01:02:34.088Z,8.86
2018-04-15T01:03:34.088Z,8.83
2018-04-15T01:04:34.077Z,8.86
2018-04-15T01:05:34.078Z,8.75
2018-04-15T01:06:34.068Z,8.83
2018-04-15T01:07:34.058Z,8.81
2018-04-15T01:08:34.058Z,8.86
2018-04-15T01:09:34.060Z,8.93
2018-04-15T01:10:34.060Z,8.84
2018-04-15T01:11:34.034Z,8.96
2018-04-15T01:12:34.034Z,8.84
2018-04-15T01:13:34.026Z,8.83
2018-04-15T01:14:34.033Z,8.83
2018-04-15T01:15:34.010Z,8.71
2018-04-15T01:16:34.011Z,8.66
2018-04-15T01:17:34.004Z,8.66
2018-04-15T01:18:34.000Z,8.55
2018-04-15T01:19:33.989Z,8.65
2018-04-15T01:20:33.986Z,8.57
2018-04-15T01:21:33.990Z,8.55
2018-04-15T01:22:33.986Z,8.55
2018-04-15T01:23:33.968Z,8.50
2018-04-15T01:24:33.961Z,8.44
2018-04-15T01:25:33.953Z,8.33
2018-04-15T01:26:33.957Z,8.28
2018-04-15T01:27:33.943Z,8.30
2018-04-15T01:28:33.937Z,8.35
2018-04-15T01:29:33.940Z,8.32
2018-04-15T02:02:25.701Z,8.69
2018-04-15T02:03:25.673Z,8.68
2018-04-15T02:05:18.560Z,8.57
2018-04-15T02:06:18.533Z,8.54
2018-04-15T02:08:11.479Z,8.32
2018-04-15T02:09:11.449Z,8.26
2018-04-15T02:11:04.365Z,8.00
2018-04-15T02:12:04.330Z,7.99
2018-04-15T02:13:57.291Z,7.79
2018-04-15T02:14:57.264Z,7.77
2018-04-15T02:16:50.173Z,7.67
2018-04-15T02:17:50.148Z,7.55
2018-04-15T02:19:43.031Z,7.41
2018-04-15T02:20:43.022Z,7.50
2018-04-15T02:22:35.945Z,7.45
2018-04-15T02:23:35.911Z,7.52
2018-04-15T02:25:28.843Z,7.40
2018-04-15T02:26:28.804Z,7.45
2018-04-15T02:28:21.755Z,7.42
2018-04-15T02:29:21.734Z,7.49
2018-04-15T02:31:14.649Z,7.59
2018-04-15T02:32:14.604Z,7.75
2018-04-15T02:34:07.560Z,7.81
2018-04-15T02:35:07.523Z,7.84
2018-04-15T02:37:00.463Z,8.07
2018-04-15T02:38:00.410Z,8.12
2018-04-15T02:39:53.360Z,8.25
2018-04-15T02:40:53.370Z,8.21
2018-04-15T02:42:46.249Z,8.36
2018-04-15T02:43:46.235Z,8.29
2018-04-15T02:45:39.179Z,8.30
2018-04-15T02:46:39.139Z,8.35
2018-04-15T02:48:32.067Z,8.35
2018-04-15T02:49:32.025Z,8.36
2018-04-15T02:52:16.075Z,8.36
2018-04-15T02:53:16.039Z,8.25
2018-04-15T02:55:08.957Z,8.11
2018-04-15T02:56:08.951Z,8.03
2018-04-15T02:58:01.894Z,8.00
2018-04-15T02:59:01.865Z,7.94
2018-04-15T03:00:54.836Z,7.89
2018-04-15T03:01:54.807Z,7.90
2018-04-15T03:04:38.793Z,7.82
2018-04-15T03:05:38.771Z,7.77
2018-04-15T03:07:31.735Z,7.67
2018-04-15T03:08:31.730Z,7.69
2018-04-15T03:10:24.615Z,7.67
2018-04-15T03:11:24.588Z,7.59
2018-04-15T03:13:17.555Z,7.50
2018-04-15T03:14:17.529Z,7.38
2018-04-15T03:16:10.499Z,7.40
2018-04-15T03:17:10.468Z,7.38
2018-04-15T03:19:03.376Z,7.29
2018-04-15T03:20:03.349Z,7.27
2018-04-15T03:21:56.321Z,7.38
2018-04-15T03:22:56.292Z,7.37
2018-04-15T03:24:49.171Z,7.27
2018-04-15T03:25:49.171Z,7.32
2018-04-15T03:26:49.155Z,7.23
2018-04-15T03:27:49.141Z,7.23
2018-04-15T03:28:49.152Z,7.08
2018-04-15T03:29:49.128Z,7.15
2018-04-15T03:30:49.126Z,7.01
2018-04-15T03:31:49.229Z,6.97
2018-04-15T03:32:49.113Z,6.94
2018-04-15T03:33:49.103Z,6.91
2018-04-15T03:34:49.101Z,6.95
2018-04-15T03:35:49.107Z,6.99
2018-04-15T03:36:49.092Z,6.98
2018-04-15T03:37:49.076Z,7.07
2018-04-15T03:38:49.086Z,7.09
2018-04-15T03:39:49.061Z,7.15
2018-04-15T03:40:49.071Z,7.16
2018-04-15T03:41:49.048Z,7.12
2018-04-15T03:42:49.044Z,7.16
2018-04-15T03:43:49.044Z,7.08
2018-04-15T03:44:49.023Z,7.13
2018-04-15T03:45:49.025Z,7.01
2018-04-15T03:46:49.013Z,7.04
2018-04-15T03:47:49.013Z,6.94
2018-04-15T03:48:49.006Z,7.15
2018-04-15T03:49:48.999Z,7.17
2018-04-15T03:50:48.991Z,7.26
2018-04-15T03:51:49.007Z,7.38
2018-04-15T03:52:48.975Z,7.31
2018-04-15T03:53:48.980Z,7.37
2018-04-15T03:54:48.963Z,7.38
2018-04-15T03:55:48.955Z,7.55
2018-04-15T03:56:48.944Z,7.56
2018-04-15T03:57:48.962Z,7.52
2018-04-15T03:58:48.941Z,7.55
2018-04-15T03:59:48.947Z,7.66
2018-04-15T04:00:48.921Z,7.72
2018-04-15T04:01:48.918Z,7.82
2018-04-15T04:02:48.907Z,7.71
2018-04-15T04:03:48.903Z,7.77
2018-04-15T04:04:48.892Z,7.67
2018-04-15T04:05:48.888Z,7.63
2018-04-15T04:06:48.887Z,7.56
2018-04-15T04:07:48.875Z,7.37
2018-04-15T04:08:48.863Z,7.32
2018-04-15T04:09:48.857Z,7.35
2018-04-15T04:10:48.864Z,7.27
2018-04-15T04:11:48.865Z,7.17
2018-04-15T04:12:48.842Z,7.08
2018-04-15T04:13:48.834Z,7.04
2018-04-15T04:14:48.822Z,7.02
2018-04-15T04:15:48.821Z,6.95
2018-04-15T04:16:48.820Z,6.95
2018-04-15T04:17:48.807Z,6.84
2018-04-15T04:18:48.806Z,6.73
2018-04-15T04:19:48.797Z,6.71
2018-04-15T04:20:48.787Z,6.71
2018-04-15T04:21:48.775Z,6.77
2018-04-15T04:22:48.776Z,6.72
2018-04-15T04:23:48.767Z,6.86
2018-04-15T04:24:48.752Z,6.90
2018-04-15T04:25:48.748Z,6.97
2018-04-15T04:26:48.745Z,6.98
2018-04-15T04:27:48.758Z,6.97
2018-04-15T04:28:48.728Z,7.04
2018-04-15T04:29:48.709Z,7.02
2018-04-15T04:30:48.736Z,7.08
2018-04-15T04:31:48.710Z,7.02
2018-04-15T04:32:48.705Z,6.97
2018-04-15T04:33:48.689Z,6.99
2018-04-15T04:34:48.697Z,6.90
2018-04-15T04:35:48.692Z,6.89
2018-04-15T04:36:48.670Z,6.87
2018-04-15T04:37:48.668Z,6.83
2018-04-15T04:38:48.667Z,6.80
2018-04-15T04:39:48.642Z,6.69
2018-04-15T04:40:48.644Z,6.69
2018-04-15T04:41:48.632Z,6.62
2018-04-15T04:42:48.633Z,6.58
2018-04-15T04:43:48.617Z,6.53
2018-04-15T04:44:48.615Z,6.51
2018-04-15T04:45:48.602Z,6.43
2018-04-15T04:46:48.597Z,6.47
2018-04-15T04:47:48.597Z,6.43
2018-04-15T04:48:48.580Z,6.46
2018-04-15T04:49:48.575Z,6.41
2018-04-15T04:50:48.574Z,6.44
2018-04-15T04:51:48.575Z,6.48
2018-04-15T04:52:48.561Z,6.56
2018-04-15T04:53:48.566Z,6.62
2018-04-15T04:54:48.545Z,6.59
2018-04-15T04:55:48.542Z,6.62
2018-04-15T04:56:48.529Z,6.69
2018-04-15T04:57:48.531Z,6.68
2018-04-15T04:58:48.528Z,6.69
2018-04-15T04:59:48.515Z,6.73
2018-04-15T05:00:48.507Z,6.72
2018-04-15T05:01:48.513Z,6.71
2018-04-15T05:02:48.498Z,6.69
2018-04-15T05:03:48.481Z,6.66
2018-04-15T05:04:48.468Z,6.81
2018-04-15T05:05:48.459Z,6.84
2018-04-15T05:06:48.461Z,6.86
2018-04-15T05:07:48.457Z,6.87
2018-04-15T05:08:48.448Z,6.98
2018-04-15T05:09:48.434Z,6.99
2018-04-15T05:10:48.430Z,7.05
2018-04-15T05:11:48.428Z,7.19
2018-04-15T05:12:48.421Z,7.27
2018-04-15T05:13:48.422Z,7.29
2018-04-15T05:14:48.407Z,7.40
2018-04-15T05:15:48.392Z,7.52
2018-04-15T05:16:48.407Z,7.56
2018-04-15T05:17:48.389Z,7.52
2018-04-15T05:18:48.380Z,7.47
2018-04-15T05:19:48.364Z,7.35
2018-04-15T05:20:48.362Z,7.32
2018-04-15T05:21:48.361Z,7.41
2018-04-15T05:22:48.355Z,7.40
2018-04-15T05:23:48.343Z,7.34
2018-04-15T05:24:48.354Z,7.41
2018-04-15T05:25:48.339Z,7.47
2018-04-15T05:26:48.326Z,7.44
2018-04-15T05:27:48.325Z,7.52
2018-04-15T05:28:48.317Z,7.59
2018-04-15T05:29:48.317Z,7.62
2018-04-15T05:30:48.322Z,7.67
2018-04-15T05:31:48.298Z,7.66
2018-04-15T05:32:48.294Z,7.62
2018-04-15T05:33:48.284Z,7.72
2018-04-15T05:34:48.289Z,7.71
2018-04-15T05:35:48.283Z,7.56
2018-04-15T05:36:48.268Z,7.60
2018-04-15T05:37:48.269Z,7.79
2018-04-15T05:38:48.250Z,7.75
2018-04-15T05:39:48.251Z,7.72
2018-04-15T05:40:48.244Z,7.69
2018-04-15T05:41:48.240Z,7.77
2018-04-15T05:42:48.222Z,7.85
2018-04-15T05:43:48.224Z,7.84
2018-04-15T05:44:48.224Z,7.94
2018-04-15T05:45:48.222Z,7.96
2018-04-15T05:46:48.211Z,7.94
2018-04-15T05:47:48.205Z,7.97
2018-04-15T05:48:48.189Z,7.97
2018-04-15T05:49:48.196Z,8.00
2018-04-15T05:50:48.194Z,8.17
2018-04-15T05:51:48.195Z,8.07
2018-04-15T05:52:48.189Z,8.11
2018-04-15T05:53:48.184Z,8.10
2018-04-15T05:54:48.167Z,8.29
2018-04-15T05:55:48.162Z,8.33
2018-04-15T05:56:48.170Z,8.44
2018-04-15T05:57:48.151Z,8.51
2018-04-15T05:58:48.143Z,8.60
2018-04-15T05:59:48.162Z,8.65
2018-04-15T06:00:48.148Z,8.71
2018-04-15T06:01:48.133Z,8.68
2018-04-15T06:02:48.126Z,8.73
2018-04-15T06:03:48.124Z,8.73
2018-04-15T06:04:48.112Z,8.87
2018-04-15T06:05:48.102Z,8.94
2018-04-15T06:06:48.109Z,8.91
2018-04-15T06:07:48.095Z,8.88
2018-04-15T06:08:48.097Z,9.01
2018-04-15T06:09:48.098Z,9.05
2018-04-15T06:10:48.088Z,9.13
2018-04-15T06:11:48.079Z,9.09
2018-04-15T06:12:48.084Z,9.20
2018-04-15T06:13:48.075Z,9.23
2018-04-15T06:14:48.280Z,9.38
2018-04-15T06:15:48.098Z,9.39
2018-04-15T06:16:48.067Z,9.45
2018-04-15T06:17:48.067Z,9.43
2018-04-15T06:18:48.049Z,9.39
2018-04-15T06:19:48.048Z,9.58
2018-04-15T06:20:48.055Z,9.64
2018-04-15T06:21:48.046Z,9.79
2018-04-15T06:22:48.052Z,9.88
2018-04-15T06:23:48.046Z,9.96
2018-04-15T06:24:48.032Z,10.01
2018-04-15T06:25:48.026Z,10.14
2018-04-15T06:26:48.024Z,10.21
2018-04-15T06:27:48.015Z,10.15
2018-04-15T06:28:48.039Z,10.21
2018-04-15T06:29:48.018Z,10.28
2018-04-15T06:30:48.020Z,10.25
2018-04-15T06:31:48.010Z,10.34
2018-04-15T06:32:47.997Z,10.44
2018-04-15T06:33:47.998Z,10.39
2018-04-15T06:34:48.007Z,10.47
2018-04-15T06:35:47.989Z,10.46
2018-04-15T06:36:48.016Z,10.55
2018-04-15T06:37:47.998Z,10.65
2018-04-15T06:38:48.000Z,10.55
2018-04-15T06:39:47.983Z,10.59
2018-04-15T06:40:47.973Z,10.65
2018-04-15T06:41:47.975Z,10.71
2018-04-15T06:42:47.964Z,10.80
2018-04-15T06:43:47.964Z,10.73
2018-04-15T06:44:47.946Z,10.84
2018-04-15T06:45:47.987Z,10.98
2018-04-15T06:46:47.958Z,11.03
2018-04-15T06:47:47.947Z,11.09
2018-04-15T06:48:47.957Z,10.99
2018-04-15T06:49:47.950Z,11.10
2018-04-15T06:50:47.936Z,11.03
2018-04-15T06:51:47.937Z,10.77
2018-04-15T06:52:47.948Z,10.70
2018-04-15T06:53:47.938Z,10.63
2018-04-15T06:54:47.938Z,10.71
2018-04-15T06:55:47.960Z,10.86
2018-04-15T06:56:47.933Z,10.96
2018-04-15T06:57:47.927Z,11.06
2018-04-15T06:58:47.926Z,11.11
2018-04-15T06:59:47.914Z,11.20
2018-04-15T07:00:47.909Z,11.24
2018-04-15T07:01:47.914Z,11.32
2018-04-15T07:02:47.925Z,11.39
2018-04-15T07:03:47.907Z,11.44
2018-04-15T07:04:47.907Z,11.53
2018-04-15T07:05:47.906Z,11.54
2018-04-15T07:06:47.908Z,11.70
2018-04-15T07:07:47.914Z,11.74
2018-04-15T07:08:47.897Z,11.78
2018-04-15T07:09:47.888Z,11.90
2018-04-15T07:10:47.898Z,11.96
2018-04-15T07:11:47.889Z,12.11
2018-04-15T07:12:47.890Z,12.09
2018-04-15T07:13:47.897Z,12.19
2018-04-15T07:14:47.897Z,12.20
2018-04-15T07:15:47.873Z,12.33
2018-04-15T07:16:47.873Z,12.39
2018-04-15T07:17:47.887Z,12.42
2018-04-15T07:18:47.873Z,12.30
2018-04-15T07:19:47.883Z,12.41
2018-04-15T07:20:47.884Z,12.52
2018-04-15T07:21:47.918Z,12.57
2018-04-15T07:22:47.872Z,12.67
2018-04-15T07:23:47.856Z,12.77
2018-04-15T07:24:47.864Z,12.69
2018-04-15T07:25:47.901Z,12.82
2018-04-15T07:26:47.852Z,12.93
2018-04-15T07:27:47.860Z,13.07
2018-04-15T07:28:47.854Z,13.11
2018-04-15T07:29:47.857Z,13.18
2018-04-15T07:30:47.847Z,13.29
2018-04-15T07:31:47.852Z,13.22
2018-04-15T07:32:47.844Z,13.32
2018-04-15T07:33:47.882Z,13.41
2018-04-15T07:34:47.840Z,13.30
2018-04-15T07:35:47.855Z,13.27
2018-04-15T07:36:47.836Z,13.21
2018-04-15T07:37:47.844Z,13.32
2018-04-15T07:38:47.843Z,13.15
2018-04-15T07:39:47.841Z,13.03
2018-04-15T07:40:47.836Z,13.20
2018-04-15T07:41:47.828Z,13.32
2018-04-15T07:42:47.833Z,13.40
2018-04-15T07:43:47.840Z,13.41
2018-04-15T07:44:47.834Z,13.70
2018-04-15T07:45:47.825Z,13.77
2018-04-15T07:46:47.833Z,14.13
2018-04-15T07:47:47.851Z,14.14
2018-04-15T07:48:47.829Z,13.98
2018-04-15T07:49:47.834Z,13.95
2018-04-15T07:50:47.828Z,14.07
2018-04-15T07:51:47.825Z,14.14
2018-04-15T07:52:47.822Z,14.20
2018-04-15T07:53:47.828Z,14.14
2018-04-15T07:54:47.822Z,14.20
2018-04-15T07:55:47.829Z,14.19
2018-04-15T07:56:47.840Z,14.10
2018-04-15T07:57:47.823Z,13.96
2018-04-15T07:58:47.821Z,13.95
2018-04-15T07:59:47.835Z,13.76
2018-04-15T08:00:47.836Z,13.61
2018-04-15T08:01:47.823Z,13.49
2018-04-15T08:02:47.820Z,13.56
2018-04-15T08:03:47.827Z,13.56
2018-04-15T08:04:47.817Z,13.63
2018-04-15T08:05:47.837Z,13.80
2018-04-15T08:06:47.818Z,13.98
2018-04-15T08:07:47.881Z,14.04
2018-04-15T08:08:47.823Z,13.94
2018-04-15T08:09:47.815Z,13.92
2018-04-15T08:10:47.825Z,13.83
2018-04-15T08:11:47.815Z,13.79
2018-04-15T08:12:47.806Z,13.79
2018-04-15T08:13:47.826Z,13.79
2018-04-15T08:14:47.821Z,13.83
2018-04-15T08:15:47.810Z,13.98
2018-04-15T08:16:47.809Z,14.25
2018-04-15T08:17:47.810Z,14.32
2018-04-15T08:18:47.827Z,14.24
2018-04-15T08:19:47.812Z,14.19
2018-04-15T08:20:47.804Z,14.10
2018-04-15T08:21:47.806Z,14.12
2018-04-15T08:22:47.799Z,13.83
2018-04-15T08:23:47.800Z,13.61
2018-04-15T08:24:47.811Z,13.51
2018-04-15T08:25:47.809Z,13.44
2018-04-15T08:26:47.810Z,13.47
2018-04-15T08:27:47.800Z,13.52
2018-04-15T08:28:47.800Z,13.59
2018-04-15T08:29:47.801Z,13.81
2018-04-15T08:30:47.802Z,13.98
2018-04-15T08:31:47.803Z,14.07
2018-04-15T08:32:47.796Z,14.28
2018-04-15T08:33:47.791Z,14.37
2018-04-15T08:34:47.809Z,14.44
2018-04-15T08:35:47.795Z,14.39
2018-04-15T08:36:47.802Z,14.28
2018-04-15T08:37:47.797Z,14.19
2018-04-15T08:38:47.803Z,14.49
2018-04-15T08:39:47.794Z,14.71
2018-04-15T08:40:47.805Z,14.67
2018-04-15T08:41:47.802Z,14.83
2018-04-15T08:42:47.792Z,14.74
2018-04-15T08:43:47.793Z,14.98
2018-04-15T08:44:47.793Z,15.02
2018-04-15T08:45:47.813Z,14.95
2018-04-15T08:46:47.808Z,14.83
2018-04-15T08:47:47.785Z,14.74
2018-04-15T08:48:47.818Z,14.80
2018-04-15T08:49:47.798Z,14.72
2018-04-15T08:50:47.793Z,14.75
2018-04-15T08:51:47.787Z,15.03
2018-04-15T08:52:47.783Z,14.72
2018-04-15T08:53:47.791Z,14.95
2018-04-15T08:54:47.802Z,14.81
2018-04-15T08:55:47.783Z,14.80
2018-04-15T08:56:47.788Z,14.71
2018-04-15T08:57:47.815Z,14.78
2018-04-15T08:58:47.802Z,14.65
2018-04-15T08:59:47.801Z,14.71
2018-04-15T09:00:47.788Z,14.53
2018-04-15T09:01:47.796Z,14.52
2018-04-15T09:02:47.794Z,14.39
2018-04-15T09:03:47.795Z,14.56
2018-04-15T09:04:47.798Z,14.53
2018-04-15T09:05:47.823Z,14.78
2018-04-15T09:06:47.798Z,14.72
2018-04-15T09:07:47.805Z,15.03
2018-04-15T09:08:47.792Z,15.28
2018-04-15T09:09:47.833Z,15.30
2018-04-15T09:10:47.800Z,15.08
2018-04-15T09:11:47.820Z,15.35
2018-04-15T09:12:47.815Z,15.66
2018-04-15T09:13:47.819Z,15.88
2018-04-15T09:14:47.819Z,15.96
2018-04-15T09:15:47.831Z,15.78
2018-04-15T09:16:47.832Z,15.89
2018-04-15T09:17:47.813Z,16.03
2018-04-15T09:18:47.830Z,16.23
2018-04-15T09:19:47.818Z,16.65
2018-04-15T09:20:47.821Z,16.68
2018-04-15T09:21:47.828Z,16.98
2018-04-15T09:22:47.848Z,16.80
2018-04-15T09:23:47.833Z,16.62
2018-04-15T09:24:47.829Z,16.00
2018-04-15T09:25:47.850Z,15.59
2018-04-15T09:26:47.847Z,15.28
2018-04-15T09:27:47.841Z,15.11
2018-04-15T09:28:47.864Z,14.90
2018-04-15T09:29:47.864Z,15.23
2018-04-15T09:30:47.865Z,15.43
2018-04-15T09:31:47.855Z,15.54
2018-04-15T09:32:47.866Z,15.99
2018-04-15T09:33:47.883Z,15.72
2018-04-15T09:34:47.869Z,16.01
2018-04-15T09:35:47.885Z,16.56
2018-04-15T09:36:47.888Z,16.56
2018-04-15T09:37:47.891Z,16.70
2018-04-15T09:38:47.895Z,16.85
2018-04-15T09:39:47.897Z,17.15
2018-04-15T09:40:47.904Z,16.31
2018-04-15T09:41:47.917Z,15.99
2018-04-15T09:42:47.913Z,15.99
2018-04-15T09:43:47.920Z,16.30
2018-04-15T09:44:47.913Z,16.40
2018-04-15T09:45:47.936Z,16.33
2018-04-15T09:46:47.937Z,16.53
2018-04-15T09:47:47.939Z,16.52
2018-04-15T09:48:47.938Z,16.45
2018-04-15T09:49:47.971Z,16.81
2018-04-15T09:50:47.937Z,16.86
2018-04-15T09:51:47.957Z,16.44
2018-04-15T09:52:47.950Z,16.22
2018-04-15T09:53:47.965Z,16.12
2018-04-15T09:54:47.961Z,16.09
2018-04-15T09:55:47.966Z,16.35
2018-04-15T09:56:47.968Z,16.88
2018-04-15T09:57:48.007Z,17.06
2018-04-15T09:58:47.986Z,17.08
2018-04-15T09:59:47.987Z,17.15
2018-04-15T10:00:47.993Z,16.86
2018-04-15T10:01:48.002Z,16.73
2018-04-15T10:02:48.009Z,16.48
2018-04-15T10:03:48.016Z,16.48
2018-04-15T10:04:48.007Z,16.07
2018-04-15T10:05:48.029Z,16.04
2018-04-15T10:06:48.027Z,16.15
2018-04-15T10:07:48.028Z,16.35
2018-04-15T10:08:48.030Z,16.38
2018-04-15T10:09:48.038Z,16.49
2018-04-15T10:10:48.036Z,16.35
2018-04-15T10:11:48.049Z,16.62
2018-04-15T10:12:48.042Z,16.35
2018-04-15T10:13:48.054Z,16.34
2018-04-15T10:14:48.058Z,16.45
2018-04-15T10:15:48.047Z,16.44
2018-04-15T10:16:48.055Z,16.40
2018-04-15T10:17:48.058Z,16.58
2018-04-15T10:18:48.059Z,16.52
2018-04-15T10:19:48.067Z,16.56
2018-04-15T10:20:48.077Z,16.41
2018-04-15T10:21:48.075Z,16.59
2018-04-15T10:22:48.091Z,16.50
2018-04-15T10:23:48.083Z,16.40
2018-04-15T10:24:48.095Z,16.07
2018-04-15T10:25:48.101Z,16.27
2018-04-15T10:26:48.085Z,16.37
2018-04-15T10:27:48.097Z,16.27
2018-04-15T10:28:48.109Z,16.27
2018-04-15T10:29:48.093Z,16.49
2018-04-15T10:30:48.085Z,16.50
2018-04-15T10:31:48.102Z,16.71
2018-04-15T10:32:48.102Z,16.56
2018-04-15T10:33:48.107Z,16.98
2018-04-15T10:34:48.120Z,17.08
2018-04-15T10:35:48.123Z,16.74
2018-04-15T10:36:48.116Z,16.83
2018-04-15T10:37:48.110Z,17.20
2018-04-15T10:38:48.170Z,16.90
2018-04-15T10:39:48.142Z,17.23
2018-04-15T10:40:48.135Z,17.74
2018-04-15T10:41:48.128Z,18.36
2018-04-15T10:42:48.128Z,18.25
2018-04-15T10:43:48.142Z,18.67
2018-04-15T10:44:48.144Z,19.61
2018-04-15T10:45:48.139Z,20.09
2018-04-15T10:46:48.165Z,20.53
2018-04-15T10:47:48.175Z,20.16
2018-04-15T10:48:48.161Z,20.20
2018-04-15T10:49:48.188Z,20.06
2018-04-15T10:50:48.205Z,20.30
2018-04-15T10:51:48.188Z,20.53
2018-04-15T10:52:48.201Z,19.98
2018-04-15T10:53:48.221Z,20.10
2018-04-15T10:54:48.203Z,19.90
2018-04-15T10:55:48.227Z,20.39
2018-04-15T10:56:48.233Z,21.04
2018-04-15T10:57:48.253Z,21.60
2018-04-15T10:58:48.278Z,21.82
2018-04-15T10:59:48.273Z,21.79
2018-04-15T11:00:48.296Z,21.59
2018-04-15T11:01:48.282Z,22.35
2018-04-15T11:02:48.348Z,22.74
2018-04-15T11:03:48.309Z,22.86
2018-04-15T11:04:48.330Z,23.01
2018-04-15T11:05:48.341Z,23.32
2018-04-15T11:06:48.348Z,22.69
2018-04-15T11:07:48.340Z,22.12
2018-04-15T11:08:48.355Z,22.78
2018-04-15T11:09:48.360Z,23.08
2018-04-15T11:10:48.375Z,23.50
2018-04-15T11:11:48.406Z,23.65
2018-04-15T11:12:48.410Z,23.14
2018-04-15T11:13:48.427Z,23.32
2018-04-15T11:14:48.431Z,23.58
2018-04-15T11:15:48.439Z,23.39
2018-04-15T11:16:48.452Z,24.20
2018-04-15T11:17:48.466Z,24.37
2018-04-15T11:18:48.491Z,24.50
2018-04-15T11:19:48.494Z,24.59
2018-04-15T11:20:48.504Z,25.13
2018-04-15T11:21:48.521Z,24.87
2018-04-15T11:22:48.576Z,24.77
2018-04-15T11:23:48.547Z,24.37
2018-04-15T11:24:48.569Z,23.65
2018-04-15T11:25:48.595Z,23.79
2018-04-15T11:26:48.598Z,23.11
2018-04-15T11:27:48.618Z,23.45
2018-04-15T11:28:48.631Z,23.07
2018-04-15T11:29:48.642Z,22.96
2018-04-15T11:30:48.700Z,23.79
2018-04-15T11:31:48.662Z,23.85
2018-04-15T11:32:48.687Z,24.00
2018-04-15T11:33:48.700Z,24.29
2018-04-15T11:34:48.719Z,23.11
2018-04-15T11:35:48.732Z,23.08
2018-04-15T11:36:48.841Z,21.76
2018-04-15T11:37:48.760Z,21.42
2018-04-15T11:38:48.786Z,20.54
2018-04-15T11:39:48.785Z,20.33
2018-04-15T11:40:48.812Z,20.00
2018-04-15T11:41:48.807Z,20.42
2018-04-15T11:42:48.813Z,20.65
2018-04-15T11:43:48.851Z,21.01
2018-04-15T11:44:48.838Z,21.17
2018-04-15T11:45:48.873Z,20.80
2018-04-15T11:46:48.858Z,21.34
2018-04-15T11:47:48.860Z,21.50
2018-04-15T11:48:48.877Z,21.82
2018-04-15T11:49:48.891Z,21.91
2018-04-15T11:50:48.905Z,21.92
2018-04-15T11:51:48.905Z,21.83
2018-04-15T11:52:48.918Z,21.54
2018-04-15T11:53:48.922Z,22.20
2018-04-15T11:54:48.936Z,22.54
2018-04-15T11:55:48.947Z,23.17
2018-04-15T11:56:48.956Z,22.34
2018-04-15T11:57:48.971Z,21.79
2018-04-15T11:58:48.996Z,21.75
2018-04-15T11:59:49.037Z,21.59
2018-04-15T12:00:49.000Z,21.39
2018-04-15T12:01:49.014Z,21.02
2018-04-15T12:02:49.022Z,21.66
2018-04-15T12:03:49.033Z,21.60
2018-04-15T12:04:49.043Z,21.14
2018-04-15T12:05:49.068Z,21.17
2018-04-15T12:06:49.076Z,20.98
2018-04-15T12:07:49.083Z,21.27
2018-04-15T12:08:49.088Z,20.25
2018-04-15T12:09:49.104Z,20.39
2018-04-15T12:10:49.108Z,20.49
2018-04-15T12:11:49.130Z,20.51
2018-04-15T12:12:49.121Z,20.62
2018-04-15T12:13:49.128Z,21.34
2018-04-15T12:14:49.147Z,22.09
2018-04-15T12:15:49.151Z,22.28
2018-04-15T12:16:49.164Z,22.41
2018-04-15T12:17:49.168Z,22.31
2018-04-15T12:18:49.177Z,21.61
2018-04-15T12:19:49.191Z,21.09
2018-04-15T12:20:49.199Z,21.09
2018-04-15T12:21:49.215Z,21.34
2018-04-15T12:22:49.228Z,21.48
2018-04-15T12:23:49.232Z,21.91
2018-04-15T12:24:49.243Z,21.94
2018-04-15T12:25:49.243Z,22.28
2018-04-15T12:26:49.274Z,22.37
2018-04-15T12:27:49.263Z,21.83
2018-04-15T12:28:49.272Z,21.66
2018-04-15T12:29:49.290Z,21.78
2018-04-15T12:30:49.285Z,21.97
2018-04-15T12:31:49.303Z,22.50
2018-04-15T12:32:49.307Z,22.72
2018-04-15T12:33:49.366Z,21.83
2018-04-15T12:34:49.328Z,22.23
2018-04-15T12:35:49.358Z,21.08
2018-04-15T12:36:49.342Z,20.50
2018-04-15T12:37:49.378Z,20.31
2018-04-15T12:38:49.368Z,20.47
2018-04-15T12:39:49.379Z,20.72
2018-04-15T12:40:49.422Z,20.35
2018-04-15T12:41:49.394Z,19.95
2018-04-15T12:42:49.401Z,20.13
2018-04-15T12:43:49.410Z,19.73
2018-04-15T12:44:49.412Z,19.54
2018-04-15T12:45:49.413Z,19.32
2018-04-15T12:46:49.424Z,19.23
2018-04-15T12:47:49.427Z,19.57
2018-04-15T12:48:49.444Z,19.70
2018-04-15T12:49:49.455Z,19.83
2018-04-15T12:50:49.463Z,19.98
2018-04-15T12:51:49.471Z,19.98
2018-04-15T12:52:49.459Z,19.79
2018-04-15T12:53:49.496Z,19.88
2018-04-15T12:54:49.489Z,19.80
2018-04-15T12:55:49.494Z,19.95
2018-04-15T12:56:49.494Z,19.98
2018-04-15T12:57:49.490Z,20.24
2018-04-15T12:58:49.496Z,20.42
2018-04-15T12:59:49.504Z,20.51
2018-04-15T13:00:49.508Z,20.25
2018-04-15T13:01:49.514Z,20.09
2018-04-15T13:02:49.547Z,19.95
2018-04-15T13:03:49.542Z,19.83
2018-04-15T13:04:49.556Z,19.50
2018-04-15T13:05:49.531Z,19.40
2018-04-15T13:06:49.545Z,19.42
2018-04-15T13:07:49.556Z,19.43
2018-04-15T13:08:49.553Z,19.39
2018-04-15T13:09:49.561Z,19.75
2018-04-15T13:10:49.557Z,19.65
2018-04-15T13:11:49.566Z,19.75
2018-04-15T13:12:49.591Z,19.93
2018-04-15T13:13:49.574Z,19.88
2018-04-15T13:14:49.591Z,19.73
2018-04-15T13:15:49.579Z,19.75
2018-04-15T13:16:49.585Z,19.95
2018-04-15T13:17:49.594Z,20.15
2018-04-15T13:18:49.610Z,20.08
2018-04-15T13:19:49.594Z,20.28
2018-04-15T13:20:49.602Z,20.24
2018-04-15T13:21:49.615Z,20.23
2018-04-15T13:22:49.605Z,20.06
2018-04-15T13:23:49.608Z,19.65
2018-04-15T13:24:49.621Z,19.69
2018-04-15T13:25:49.627Z,19.48
2018-04-15T13:26:49.628Z,19.23
2018-04-15T13:27:49.629Z,19.31
2018-04-15T13:28:49.675Z,19.61
2018-04-15T13:29:49.637Z,20.00
2018-04-15T13:30:49.640Z,20.33
2018-04-15T13:31:49.647Z,20.20
2018-04-15T13:32:49.650Z,20.06
2018-04-15T13:33:49.649Z,20.06
2018-04-15T13:34:49.649Z,19.72
2018-04-15T13:35:49.652Z,19.54
2018-04-15T13:36:49.683Z,19.60
2018-04-15T13:37:49.660Z,19.53
2018-04-15T13:38:49.672Z,19.53
2018-04-15T13:39:49.699Z,19.21
2018-04-15T13:40:49.673Z,19.24
2018-04-15T13:41:49.671Z,19.20
2018-04-15T13:42:49.690Z,18.92
2018-04-15T13:43:49.685Z,19.36
2018-04-15T13:44:49.706Z,19.50
2018-04-15T13:45:49.691Z,19.60
2018-04-15T13:46:49.678Z,19.58
2018-04-15T13:47:49.689Z,19.79
2018-04-15T13:48:49.729Z,19.98
2018-04-15T13:49:49.694Z,20.10
2018-04-15T13:50:49.726Z,20.21
2018-04-15T13:51:49.749Z,19.87
2018-04-15T13:52:49.722Z,19.63
2018-04-15T13:53:49.713Z,19.24
2018-04-15T13:54:49.719Z,19.38
2018-04-15T13:55:49.717Z,19.18
2018-04-15T13:56:49.734Z,19.11
2018-04-15T13:57:49.731Z,19.20
2018-04-15T13:58:49.732Z,19.18
2018-04-15T13:59:49.731Z,19.13